AUA141 LOWW-LOWI
Flight info
| Callsign | AUA141 |
|---|---|
| Flight time | 0h 45m |
| Altitude | 26000 |
| Route | SOVIL DCT SITNI DCT BAGSI DCT NANIT NANIT2A |
| Aircraft | A320/M-SDE3FGHIRWY/LB1 |
Departure
| Time | 2026-05-06 23:13 |
|---|---|
| Airport | Vienna International Airport (LOWW) |
Arrival
| Time | 2026-05-06 23:58 |
|---|---|
| Airport | Innsbruck Airport (LOWI) |
| Time | Latitude | Longitude | Altitude | Speed | Heading |
|---|---|---|---|---|---|
| 2026-05-06 22:42 | 48.11816 | 16.57051 | 602 ft | 0 kts | 190° |
| 2026-05-06 23:06 | 48.11824 | 16.57053 | 592 ft | 3 kts | 205° |
| 2026-05-06 23:06 | 48.11839 | 16.57064 | 581 ft | 3 kts | 199° |
| 2026-05-06 23:06 | 48.11858 | 16.57071 | 606 ft | 3 kts | 177° |
| 2026-05-06 23:07 | 48.11876 | 16.57066 | 601 ft | 3 kts | 142° |
| 2026-05-06 23:07 | 48.11886 | 16.57049 | 600 ft | 1 kts | 116° |
| 2026-05-06 23:07 | 48.11888 | 16.57043 | 600 ft | 0 kts | 116° |
| 2026-05-06 23:09 | 48.11880 | 16.57068 | 601 ft | 10 kts | 116° |
| 2026-05-06 23:09 | 48.11857 | 16.57164 | 602 ft | 9 kts | 95° |
| 2026-05-06 23:09 | 48.11844 | 16.57258 | 602 ft | 9 kts | 101° |
| 2026-05-06 23:10 | 48.11879 | 16.57309 | 601 ft | 8 kts | 4° |
| 2026-05-06 23:10 | 48.11933 | 16.57293 | 600 ft | 8 kts | 347° |
| 2026-05-06 23:10 | 48.11984 | 16.57318 | 599 ft | 8 kts | 53° |
| 2026-05-06 23:10 | 48.11999 | 16.57384 | 599 ft | 6 kts | 75° |
| 2026-05-06 23:11 | 48.12008 | 16.57434 | 600 ft | 4 kts | 76° |
| 2026-05-06 23:11 | 48.12011 | 16.57484 | 599 ft | 8 kts | 91° |
| 2026-05-06 23:11 | 48.11998 | 16.57576 | 598 ft | 9 kts | 104° |
| 2026-05-06 23:11 | 48.11981 | 16.57674 | 596 ft | 10 kts | 104° |
| 2026-05-06 23:12 | 48.11964 | 16.57760 | 597 ft | 7 kts | 112° |
| 2026-05-06 23:12 | 48.11941 | 16.57809 | 599 ft | 9 kts | 132° |
| 2026-05-06 23:12 | 48.11886 | 16.57856 | 601 ft | 8 kts | 163° |
| 2026-05-06 23:12 | 48.11714 | 16.57930 | 616 ft | 59 kts | 165° |
| 2026-05-06 23:13 | 48.11098 | 16.58189 | 611 ft | 122 kts | 165° |
| 2026-05-06 23:13 | 48.10126 | 16.58600 | 626 ft | 169 kts | 161° |
| 2026-05-06 23:13 | 48.08989 | 16.59060 | 1236 ft | 167 kts | 167° |
| 2026-05-06 23:13 | 48.07869 | 16.59497 | 1978 ft | 170 kts | 172° |
| 2026-05-06 23:14 | 48.06644 | 16.59957 | 2347 ft | 190 kts | 177° |
| 2026-05-06 23:14 | 48.05331 | 16.59739 | 2731 ft | 197 kts | 215° |
| 2026-05-06 23:14 | 48.04391 | 16.58232 | 3115 ft | 213 kts | 243° |
| 2026-05-06 23:14 | 48.03608 | 16.56209 | 3523 ft | 236 kts | 238° |
| 2026-05-06 23:15 | 48.02640 | 16.54145 | 4272 ft | 246 kts | 236° |
| 2026-05-06 23:15 | 48.01606 | 16.52068 | 5147 ft | 252 kts | 235° |
| 2026-05-06 23:15 | 48.00542 | 16.49956 | 5991 ft | 257 kts | 236° |
| 2026-05-06 23:15 | 47.99464 | 16.47799 | 6826 ft | 261 kts | 235° |
| 2026-05-06 23:16 | 47.98449 | 16.45541 | 7644 ft | 263 kts | 245° |
| 2026-05-06 23:16 | 47.97934 | 16.42948 | 8470 ft | 267 kts | 263° |
| 2026-05-06 23:16 | 47.97958 | 16.40153 | 9301 ft | 272 kts | 271° |
| 2026-05-06 23:16 | 47.98075 | 16.37311 | 10077 ft | 277 kts | 271° |
| 2026-05-06 23:17 | 47.98198 | 16.34351 | 10443 ft | 297 kts | 271° |
| 2026-05-06 23:17 | 47.98324 | 16.31160 | 10723 ft | 318 kts | 271° |
| 2026-05-06 23:17 | 47.98459 | 16.27807 | 11313 ft | 326 kts | 271° |
| 2026-05-06 23:17 | 47.98597 | 16.24400 | 12042 ft | 331 kts | 271° |
| 2026-05-06 23:18 | 47.98732 | 16.20952 | 12779 ft | 335 kts | 271° |
| 2026-05-06 23:18 | 47.98864 | 16.17464 | 13507 ft | 338 kts | 271° |
| 2026-05-06 23:18 | 47.98993 | 16.13938 | 14181 ft | 342 kts | 271° |
| 2026-05-06 23:18 | 47.99152 | 16.10371 | 14835 ft | 345 kts | 272° |
| 2026-05-06 23:19 | 47.99396 | 16.06787 | 15490 ft | 348 kts | 274° |
| 2026-05-06 23:19 | 47.99690 | 16.03170 | 16143 ft | 352 kts | 274° |
| 2026-05-06 23:19 | 47.99997 | 15.99581 | 16777 ft | 355 kts | 274° |
| 2026-05-06 23:19 | 48.00307 | 15.95910 | 17434 ft | 358 kts | 274° |
| 2026-05-06 23:20 | 48.00609 | 15.92210 | 17991 ft | 360 kts | 274° |
| 2026-05-06 23:20 | 48.00905 | 15.88481 | 18524 ft | 364 kts | 272° |
| 2026-05-06 23:20 | 48.01196 | 15.84700 | 18987 ft | 369 kts | 273° |
| 2026-05-06 23:20 | 48.01484 | 15.80865 | 19547 ft | 372 kts | 272° |
| 2026-05-06 23:21 | 48.01769 | 15.77008 | 20126 ft | 375 kts | 272° |
| 2026-05-06 23:21 | 48.02056 | 15.73127 | 20695 ft | 378 kts | 272° |
| 2026-05-06 23:21 | 48.02343 | 15.69204 | 21246 ft | 380 kts | 272° |
| 2026-05-06 23:21 | 48.02628 | 15.65302 | 21776 ft | 383 kts | 272° |
| 2026-05-06 23:22 | 48.02918 | 15.61329 | 22322 ft | 386 kts | 272° |
| 2026-05-06 23:22 | 48.03210 | 15.57312 | 22861 ft | 389 kts | 272° |
| 2026-05-06 23:22 | 48.03505 | 15.53279 | 23364 ft | 392 kts | 272° |
| 2026-05-06 23:22 | 48.03804 | 15.49212 | 23814 ft | 394 kts | 272° |
| 2026-05-06 23:23 | 48.04101 | 15.45127 | 24285 ft | 397 kts | 271° |
| 2026-05-06 23:23 | 48.04395 | 15.41018 | 24713 ft | 398 kts | 271° |
| 2026-05-06 23:23 | 48.04673 | 15.36942 | 25123 ft | 399 kts | 270° |
| 2026-05-06 23:23 | 48.04848 | 15.32797 | 25531 ft | 399 kts | 268° |
| 2026-05-06 23:24 | 48.04930 | 15.28642 | 25822 ft | 399 kts | 266° |
| 2026-05-06 23:24 | 48.04963 | 15.24538 | 25880 ft | 389 kts | 266° |
| 2026-05-06 23:24 | 48.04981 | 15.20528 | 25895 ft | 383 kts | 265° |
| 2026-05-06 23:24 | 48.05003 | 15.16565 | 25884 ft | 381 kts | 266° |
| 2026-05-06 23:25 | 48.05036 | 15.12602 | 25890 ft | 380 kts | 266° |
| 2026-05-06 23:25 | 48.05079 | 15.08655 | 25888 ft | 380 kts | 266° |
| 2026-05-06 23:25 | 48.05132 | 15.04699 | 25906 ft | 380 kts | 266° |
| 2026-05-06 23:25 | 48.05191 | 15.00742 | 25889 ft | 380 kts | 266° |
| 2026-05-06 23:26 | 48.05251 | 14.96846 | 25905 ft | 380 kts | 266° |
| 2026-05-06 23:26 | 48.05308 | 14.92894 | 25897 ft | 379 kts | 265° |
| 2026-05-06 23:26 | 48.05358 | 14.88961 | 25897 ft | 379 kts | 265° |
| 2026-05-06 23:26 | 48.05405 | 14.85012 | 25894 ft | 379 kts | 265° |
| 2026-05-06 23:27 | 48.05453 | 14.81073 | 25896 ft | 379 kts | 265° |
| 2026-05-06 23:27 | 48.05492 | 14.77179 | 25898 ft | 379 kts | 265° |
| 2026-05-06 23:27 | 48.05524 | 14.73244 | 25897 ft | 379 kts | 265° |
| 2026-05-06 23:27 | 48.05550 | 14.69309 | 25897 ft | 378 kts | 265° |
| 2026-05-06 23:28 | 48.05576 | 14.65373 | 25897 ft | 378 kts | 265° |
| 2026-05-06 23:28 | 48.05601 | 14.61440 | 25898 ft | 378 kts | 265° |
| 2026-05-06 23:28 | 48.05626 | 14.57510 | 25927 ft | 378 kts | 265° |
| 2026-05-06 23:28 | 48.05653 | 14.53576 | 25926 ft | 377 kts | 265° |
| 2026-05-06 23:29 | 48.05679 | 14.49663 | 25924 ft | 377 kts | 264° |
| 2026-05-06 23:29 | 48.05702 | 14.45736 | 25923 ft | 377 kts | 264° |
| 2026-05-06 23:29 | 48.05722 | 14.41830 | 25927 ft | 376 kts | 264° |
| 2026-05-06 23:29 | 48.05738 | 14.37909 | 25927 ft | 376 kts | 264° |
| 2026-05-06 23:30 | 48.05753 | 14.34051 | 25926 ft | 376 kts | 264° |
| 2026-05-06 23:30 | 48.05546 | 14.30193 | 25923 ft | 369 kts | 254° |
| 2026-05-06 23:30 | 48.04888 | 14.26522 | 25920 ft | 363 kts | 245° |
| 2026-05-06 23:30 | 48.03842 | 14.23100 | 25918 ft | 360 kts | 240° |
| 2026-05-06 23:31 | 48.02726 | 14.19741 | 25917 ft | 361 kts | 240° |
| 2026-05-06 23:31 | 48.01613 | 14.16382 | 25913 ft | 361 kts | 240° |
| 2026-05-06 23:31 | 48.00499 | 14.13022 | 25954 ft | 360 kts | 240° |
| 2026-05-06 23:31 | 47.99403 | 14.09706 | 25951 ft | 359 kts | 240° |
| 2026-05-06 23:32 | 47.98297 | 14.06366 | 25951 ft | 358 kts | 240° |
| 2026-05-06 23:32 | 47.97194 | 14.03035 | 25955 ft | 357 kts | 240° |
| 2026-05-06 23:32 | 47.96088 | 13.99710 | 25955 ft | 357 kts | 240° |
| 2026-05-06 23:32 | 47.94984 | 13.96400 | 25951 ft | 356 kts | 240° |
| 2026-05-06 23:33 | 47.93881 | 13.93094 | 25946 ft | 356 kts | 240° |
| 2026-05-06 23:33 | 47.92776 | 13.89787 | 25937 ft | 356 kts | 240° |
| 2026-05-06 23:33 | 47.91670 | 13.86479 | 25935 ft | 356 kts | 239° |
| 2026-05-06 23:33 | 47.90565 | 13.83182 | 25944 ft | 356 kts | 240° |
| 2026-05-06 23:34 | 47.89458 | 13.79879 | 25945 ft | 356 kts | 239° |
| 2026-05-06 23:34 | 47.88351 | 13.76584 | 25942 ft | 356 kts | 239° |
| 2026-05-06 23:34 | 47.87241 | 13.73288 | 25940 ft | 356 kts | 239° |
| 2026-05-06 23:34 | 47.86132 | 13.69998 | 25936 ft | 355 kts | 239° |
| 2026-05-06 23:35 | 47.85039 | 13.66761 | 25935 ft | 355 kts | 239° |
| 2026-05-06 23:35 | 47.83924 | 13.63470 | 25933 ft | 355 kts | 240° |
| 2026-05-06 23:35 | 47.82809 | 13.60177 | 25977 ft | 356 kts | 239° |
| 2026-05-06 23:35 | 47.81695 | 13.56890 | 25979 ft | 355 kts | 239° |
| 2026-05-06 23:36 | 47.80585 | 13.53612 | 25978 ft | 354 kts | 239° |
| 2026-05-06 23:36 | 47.79476 | 13.50335 | 25977 ft | 354 kts | 239° |
| 2026-05-06 23:36 | 47.78369 | 13.47076 | 25972 ft | 353 kts | 239° |
| 2026-05-06 23:36 | 47.77262 | 13.43816 | 25970 ft | 353 kts | 239° |
| 2026-05-06 23:37 | 47.76153 | 13.40558 | 25966 ft | 353 kts | 239° |
| 2026-05-06 23:37 | 47.75043 | 13.37306 | 25963 ft | 352 kts | 239° |
| 2026-05-06 23:37 | 47.73951 | 13.34105 | 25959 ft | 351 kts | 239° |
| 2026-05-06 23:37 | 47.72846 | 13.30870 | 25955 ft | 351 kts | 239° |
| 2026-05-06 23:38 | 47.71738 | 13.27634 | 25955 ft | 351 kts | 239° |
| 2026-05-06 23:38 | 47.70624 | 13.24396 | 25955 ft | 351 kts | 239° |
| 2026-05-06 23:38 | 47.69517 | 13.21179 | 25776 ft | 346 kts | 239° |
| 2026-05-06 23:38 | 47.68436 | 13.18030 | 25529 ft | 340 kts | 239° |
| 2026-05-06 23:39 | 47.67378 | 13.14951 | 25276 ft | 337 kts | 239° |
| 2026-05-06 23:39 | 47.66314 | 13.11867 | 25039 ft | 335 kts | 239° |
| 2026-05-06 23:39 | 47.65253 | 13.08793 | 24843 ft | 333 kts | 238° |
| 2026-05-06 23:39 | 47.64199 | 13.05748 | 24599 ft | 331 kts | 238° |
| 2026-05-06 23:40 | 47.63149 | 13.02719 | 24359 ft | 329 kts | 238° |
| 2026-05-06 23:40 | 47.62105 | 12.99702 | 24124 ft | 328 kts | 239° |
| 2026-05-06 23:40 | 47.61065 | 12.96692 | 23888 ft | 328 kts | 239° |
| 2026-05-06 23:40 | 47.60027 | 12.93691 | 23650 ft | 328 kts | 239° |
| 2026-05-06 23:41 | 47.58986 | 12.90691 | 23406 ft | 327 kts | 238° |
| 2026-05-06 23:41 | 47.57946 | 12.87696 | 23128 ft | 326 kts | 239° |
| 2026-05-06 23:41 | 47.56910 | 12.84710 | 22844 ft | 325 kts | 239° |
| 2026-05-06 23:41 | 47.55878 | 12.81743 | 22574 ft | 324 kts | 238° |
| 2026-05-06 23:42 | 47.54859 | 12.78821 | 22301 ft | 322 kts | 238° |
| 2026-05-06 23:42 | 47.53828 | 12.75876 | 22030 ft | 322 kts | 238° |
| 2026-05-06 23:42 | 47.52798 | 12.72940 | 21762 ft | 321 kts | 238° |
| 2026-05-06 23:42 | 47.51769 | 12.70009 | 21482 ft | 319 kts | 239° |
| 2026-05-06 23:43 | 47.51092 | 12.68080 | 21309 ft | 319 kts | 239° |
| 2026-05-06 23:43 | 47.50071 | 12.65166 | 21050 ft | 318 kts | 239° |
| 2026-05-06 23:43 | 47.49062 | 12.62289 | 20737 ft | 313 kts | 239° |
| 2026-05-06 23:43 | 47.48064 | 12.59443 | 20359 ft | 310 kts | 239° |
| 2026-05-06 23:44 | 47.47072 | 12.56621 | 19967 ft | 309 kts | 239° |
| 2026-05-06 23:44 | 47.46083 | 12.53814 | 19560 ft | 306 kts | 239° |
| 2026-05-06 23:44 | 47.45101 | 12.51028 | 19176 ft | 304 kts | 239° |
| 2026-05-06 23:44 | 47.44126 | 12.48260 | 18784 ft | 303 kts | 239° |
| 2026-05-06 23:45 | 47.43151 | 12.45505 | 18414 ft | 301 kts | 239° |
| 2026-05-06 23:45 | 47.42179 | 12.42763 | 18006 ft | 301 kts | 239° |
| 2026-05-06 23:45 | 47.41211 | 12.40035 | 17610 ft | 298 kts | 240° |
| 2026-05-06 23:45 | 47.40310 | 12.37331 | 17242 ft | 296 kts | 245° |
| 2026-05-06 23:46 | 47.39757 | 12.34403 | 16854 ft | 298 kts | 257° |
| 2026-05-06 23:46 | 47.39639 | 12.31343 | 16453 ft | 302 kts | 269° |
| 2026-05-06 23:46 | 47.39901 | 12.28256 | 16046 ft | 303 kts | 274° |
| 2026-05-06 23:46 | 47.40201 | 12.25183 | 15650 ft | 303 kts | 273° |
| 2026-05-06 23:47 | 47.40497 | 12.22096 | 15249 ft | 304 kts | 274° |
| 2026-05-06 23:47 | 47.40788 | 12.19006 | 14850 ft | 304 kts | 273° |
| 2026-05-06 23:47 | 47.41073 | 12.15926 | 14460 ft | 302 kts | 274° |
| 2026-05-06 23:47 | 47.41356 | 12.12858 | 14054 ft | 301 kts | 274° |
| 2026-05-06 23:48 | 47.41636 | 12.09798 | 13653 ft | 301 kts | 274° |
| 2026-05-06 23:48 | 47.41914 | 12.06773 | 13220 ft | 299 kts | 274° |
| 2026-05-06 23:48 | 47.42193 | 12.03725 | 12825 ft | 299 kts | 274° |
| 2026-05-06 23:48 | 47.42466 | 12.00688 | 12434 ft | 297 kts | 272° |
| 2026-05-06 23:49 | 47.42401 | 11.97680 | 12038 ft | 291 kts | 256° |
| 2026-05-06 23:49 | 47.41786 | 11.94885 | 11657 ft | 284 kts | 242° |
| 2026-05-06 23:49 | 47.40696 | 11.92484 | 11272 ft | 282 kts | 227° |
| 2026-05-06 23:49 | 47.39214 | 11.90597 | 10872 ft | 282 kts | 213° |
| 2026-05-06 23:50 | 47.37535 | 11.89110 | 10479 ft | 280 kts | 210° |
| 2026-05-06 23:50 | 47.34496 | 11.86041 | 10028 ft | 248 kts | 225° |
| 2026-05-06 23:50 | 47.33469 | 11.84128 | 9929 ft | 229 kts | 237° |
| 2026-05-06 23:51 | 47.32774 | 11.82084 | 9640 ft | 217 kts | 244° |
| 2026-05-06 23:51 | 47.32240 | 11.80030 | 9407 ft | 215 kts | 251° |
| 2026-05-06 23:51 | 47.31883 | 11.77919 | 9079 ft | 207 kts | 255° |
| 2026-05-06 23:51 | 47.31598 | 11.75866 | 8703 ft | 202 kts | 256° |
| 2026-05-06 23:52 | 47.31326 | 11.73861 | 8366 ft | 196 kts | 256° |
| 2026-05-06 23:52 | 47.31062 | 11.71916 | 8049 ft | 191 kts | 256° |
| 2026-05-06 23:52 | 47.30809 | 11.70052 | 7723 ft | 185 kts | 256° |
| 2026-05-06 23:52 | 47.30562 | 11.68235 | 7420 ft | 177 kts | 256° |
| 2026-05-06 23:53 | 47.30324 | 11.66483 | 7159 ft | 170 kts | 257° |
| 2026-05-06 23:53 | 47.30095 | 11.64806 | 6868 ft | 164 kts | 257° |
| 2026-05-06 23:53 | 47.29873 | 11.63182 | 6604 ft | 159 kts | 257° |
| 2026-05-06 23:53 | 47.29658 | 11.61608 | 6346 ft | 155 kts | 257° |
| 2026-05-06 23:54 | 47.29448 | 11.60073 | 6081 ft | 151 kts | 258° |
| 2026-05-06 23:54 | 47.29240 | 11.58556 | 5825 ft | 150 kts | 258° |
| 2026-05-06 23:54 | 47.29034 | 11.57053 | 5560 ft | 150 kts | 258° |
| 2026-05-06 23:54 | 47.28830 | 11.55566 | 5289 ft | 150 kts | 259° |
| 2026-05-06 23:55 | 47.28624 | 11.54070 | 5014 ft | 149 kts | 260° |
| 2026-05-06 23:55 | 47.28420 | 11.52584 | 4744 ft | 148 kts | 260° |
| 2026-05-06 23:55 | 47.28215 | 11.51097 | 4499 ft | 147 kts | 260° |
| 2026-05-06 23:55 | 47.28010 | 11.49601 | 4123 ft | 155 kts | 259° |
| 2026-05-06 23:56 | 47.27778 | 11.47940 | 3518 ft | 174 kts | 258° |
| 2026-05-06 23:56 | 47.27473 | 11.46212 | 3124 ft | 170 kts | 255° |
| 2026-05-06 23:56 | 47.27181 | 11.44601 | 2864 ft | 156 kts | 257° |
| 2026-05-06 23:56 | 47.26981 | 11.43081 | 2655 ft | 148 kts | 261° |
| 2026-05-06 23:57 | 47.26801 | 11.41627 | 2581 ft | 145 kts | 260° |
| 2026-05-06 23:57 | 47.26649 | 11.40157 | 2417 ft | 144 kts | 262° |
| 2026-05-06 23:57 | 47.26486 | 11.38701 | 2293 ft | 145 kts | 261° |
| 2026-05-06 23:57 | 47.26327 | 11.37246 | 2109 ft | 143 kts | 261° |
| 2026-05-06 23:58 | 47.26168 | 11.35796 | 1949 ft | 142 kts | 262° |
| 2026-05-06 23:58 | 47.26029 | 11.34473 | 1905 ft | 99 kts | 261° |
| 2026-05-06 23:58 | 47.25963 | 11.33857 | 1899 ft | 41 kts | 261° |
| 2026-05-06 23:58 | 47.25909 | 11.33712 | 1909 ft | 6 kts | 155° |
| 2026-05-06 23:59 | 47.25873 | 11.33753 | 1907 ft | 7 kts | 130° |
| 2026-05-06 23:59 | 47.25847 | 11.33805 | 1898 ft | 6 kts | 127° |
| 2026-05-06 23:59 | 47.25824 | 11.33852 | 1907 ft | 5 kts | 124° |
| 2026-05-06 23:59 | 47.25807 | 11.33889 | 1899 ft | 4 kts | 123° |
| 2026-05-07 00:00 | 47.25795 | 11.33918 | 1907 ft | 3 kts | 122° |
| 2026-05-07 00:00 | 47.25787 | 11.33938 | 1899 ft | 2 kts | 119° |
| 2026-05-07 00:00 | 47.25772 | 11.34026 | 1907 ft | 12 kts | 95° |
| 2026-05-07 00:00 | 47.25780 | 11.34145 | 1900 ft | 11 kts | 81° |
| 2026-05-07 00:01 | 47.25791 | 11.34256 | 1907 ft | 10 kts | 81° |
| 2026-05-07 00:01 | 47.25802 | 11.34354 | 1907 ft | 9 kts | 81° |
| 2026-05-07 00:01 | 47.25811 | 11.34437 | 1896 ft | 8 kts | 81° |
| 2026-05-07 00:01 | 47.25819 | 11.34510 | 1904 ft | 7 kts | 81° |
| 2026-05-07 00:02 | 47.25825 | 11.34569 | 1902 ft | 5 kts | 81° |
| 2026-05-07 00:02 | 47.25830 | 11.34616 | 1907 ft | 4 kts | 81° |
| 2026-05-07 00:02 | 47.25834 | 11.34650 | 1907 ft | 3 kts | 80° |
| 2026-05-07 00:02 | 47.25837 | 11.34681 | 1903 ft | 8 kts | 80° |
| 2026-05-07 00:03 | 47.25852 | 11.34816 | 1900 ft | 13 kts | 81° |
| 2026-05-07 00:03 | 47.25865 | 11.34937 | 1907 ft | 11 kts | 81° |
| 2026-05-07 00:03 | 47.25833 | 11.34985 | 1903 ft | 5 kts | 161° |
| 2026-05-07 00:03 | 47.25816 | 11.34990 | 1903 ft | 0 kts | 172° |